createdAt,value
2023-05-17T00:00:56.925Z,5.50
2023-05-17T00:03:25.117Z,4.57
2023-05-17T00:05:53.354Z,4.05
2023-05-17T00:08:21.606Z,5.28
2023-05-17T00:10:51.176Z,5.47
2023-05-17T00:13:19.368Z,5.50
2023-05-17T00:15:47.599Z,6.07
2023-05-17T00:18:15.855Z,6.22
2023-05-17T00:20:44.620Z,5.95
2023-05-17T00:23:12.842Z,5.40
2023-05-17T00:25:41.160Z,5.38
2023-05-17T00:28:10.732Z,6.78
2023-05-17T00:30:38.946Z,6.68
2023-05-17T00:33:07.276Z,4.82
2023-05-17T00:35:35.643Z,4.53
2023-05-17T00:38:04.307Z,5.07
2023-05-17T00:40:32.525Z,7.93
2023-05-17T00:43:00.718Z,7.65
2023-05-17T00:45:30.593Z,4.90
2023-05-17T00:47:59.020Z,8.13
2023-05-17T00:50:27.453Z,5.53
2023-05-17T00:52:56.693Z,6.03
2023-05-17T00:55:25.013Z,6.43
2023-05-17T00:57:53.261Z,6.57
2023-05-17T01:00:21.649Z,6.30
2023-05-17T01:02:51.868Z,4.90
2023-05-17T01:05:20.226Z,5.15
2023-05-17T01:07:48.397Z,7.00
2023-05-17T01:10:16.641Z,7.45
2023-05-17T01:12:57.047Z,9.05
2023-05-17T01:15:29.081Z,4.82
2023-05-17T01:18:10.639Z,4.75
2023-05-17T01:20:41.634Z,9.23
2023-05-17T01:23:29.124Z,4.45
2023-05-17T01:26:05.947Z,8.27
2023-05-17T01:28:37.947Z,6.13
2023-05-17T01:31:06.547Z,5.00
2023-05-17T01:33:35.792Z,5.93
2023-05-17T01:36:04.011Z,7.68
2023-05-17T01:38:32.237Z,7.82
2023-05-17T01:41:06.604Z,5.63
2023-05-17T01:43:46.229Z,4.57
2023-05-17T01:46:19.646Z,8.00
2023-05-17T01:48:54.311Z,5.50
2023-05-17T01:51:29.715Z,7.40
2023-05-17T01:54:02.965Z,4.95
2023-05-17T01:56:35.813Z,6.18
2023-05-17T01:59:08.527Z,5.30
2023-05-17T02:01:37.388Z,6.50
2023-05-17T02:04:06.038Z,6.25
2023-05-17T02:06:34.298Z,4.57
2023-05-17T02:09:03.225Z,6.28
2023-05-17T02:11:32.378Z,4.88
2023-05-17T02:14:00.650Z,5.75
2023-05-17T02:16:30.271Z,4.43
2023-05-17T02:18:58.589Z,5.35
2023-05-17T02:21:26.829Z,8.80
2023-05-17T02:23:54.994Z,6.88
2023-05-17T02:26:23.241Z,5.18
2023-05-17T02:28:51.442Z,3.80
2023-05-17T02:31:19.623Z,6.88
2023-05-17T02:33:49.327Z,5.80
2023-05-17T02:36:17.636Z,6.03
2023-05-17T02:38:45.835Z,5.55
2023-05-17T02:41:14.072Z,9.82
2023-05-17T02:43:42.246Z,5.63
2023-05-17T02:46:10.640Z,7.10
2023-05-17T02:48:38.839Z,5.13
2023-05-17T02:51:08.487Z,5.70
2023-05-17T02:53:36.665Z,4.55
2023-05-17T02:56:04.914Z,5.63
2023-05-17T02:58:33.113Z,4.18
2023-05-17T03:01:01.457Z,4.00
2023-05-17T03:03:29.760Z,4.93
2023-05-17T03:06:02.034Z,3.53
2023-05-17T03:08:32.417Z,3.25
2023-05-17T03:11:00.781Z,3.60
2023-05-17T03:13:29.016Z,4.82
2023-05-17T03:15:57.185Z,3.97
2023-05-17T03:18:25.598Z,4.82
2023-05-17T03:20:53.888Z,6.07
2023-05-17T03:23:22.260Z,4.97
2023-05-17T03:25:51.920Z,4.50
2023-05-17T03:28:20.653Z,4.93
2023-05-17T03:30:48.932Z,5.68
2023-05-17T03:33:17.237Z,3.63
2023-05-17T03:35:46.911Z,3.88
2023-05-17T03:38:15.150Z,5.88
2023-05-17T03:40:43.369Z,4.70
2023-05-17T03:43:13.436Z,3.83
2023-05-17T03:45:41.655Z,5.95
2023-05-17T03:48:09.894Z,3.00
2023-05-17T03:50:39.121Z,5.50
2023-05-17T03:53:07.305Z,5.53
2023-05-17T03:55:35.541Z,3.05
2023-05-17T03:58:04.142Z,4.47
2023-05-17T04:00:33.806Z,2.85
2023-05-17T04:03:02.119Z,4.00
2023-05-17T04:05:30.713Z,4.47
2023-05-17T04:07:59.080Z,4.22
2023-05-17T04:10:27.277Z,5.22
2023-05-17T04:12:55.473Z,5.07
2023-05-17T04:15:23.755Z,3.78
2023-05-17T04:17:53.456Z,3.15
2023-05-17T04:20:22.095Z,3.38
2023-05-17T04:22:50.343Z,7.22
2023-05-17T04:25:18.918Z,4.38
2023-05-17T04:27:47.493Z,4.32
2023-05-17T04:30:16.153Z,4.30
2023-05-17T04:32:44.753Z,3.33
2023-05-17T04:35:14.581Z,3.22
2023-05-17T04:37:42.800Z,4.38
2023-05-17T04:40:12.931Z,4.60
2023-05-17T04:42:41.332Z,3.50
2023-05-17T04:45:10.521Z,3.10
2023-05-17T04:47:38.810Z,5.32
2023-05-17T04:50:07.665Z,4.15
2023-05-17T04:52:37.346Z,3.20
2023-05-17T04:55:06.281Z,6.57
2023-05-17T04:57:34.478Z,3.20
2023-05-17T05:00:06.872Z,4.95
2023-05-17T05:02:35.106Z,6.28
2023-05-17T05:05:05.063Z,3.33
2023-05-17T05:07:33.391Z,4.75
2023-05-17T05:10:03.048Z,4.20
2023-05-17T05:12:31.242Z,6.50
2023-05-17T05:15:00.968Z,4.55
2023-05-17T05:17:30.535Z,3.50
2023-05-17T05:19:59.159Z,5.35
2023-05-17T05:22:27.751Z,4.38
2023-05-17T05:24:56.474Z,5.10
2023-05-17T05:27:26.120Z,5.00
2023-05-17T05:29:55.760Z,4.10
2023-05-17T05:32:23.968Z,3.50
2023-05-17T05:34:52.163Z,3.97
2023-05-17T05:37:20.727Z,3.15
2023-05-17T05:39:49.054Z,4.40
2023-05-17T05:42:17.243Z,2.83
2023-05-17T05:44:46.816Z,3.13
2023-05-17T05:47:15.055Z,4.28
2023-05-17T05:49:43.234Z,4.35
2023-05-17T05:52:11.421Z,4.95
2023-05-17T05:54:39.674Z,3.20
2023-05-17T05:57:07.866Z,3.42
2023-05-17T05:59:36.053Z,3.88
2023-05-17T06:02:05.855Z,6.05
2023-05-17T06:04:44.608Z,3.72
2023-05-17T06:07:14.159Z,5.72
2023-05-17T06:09:42.744Z,5.05
2023-05-17T06:12:12.063Z,2.33
2023-05-17T06:14:40.306Z,2.85
2023-05-17T06:17:09.953Z,4.53
2023-05-17T06:19:38.260Z,3.25
2023-05-17T06:22:06.688Z,3.90
2023-05-17T06:24:34.869Z,3.95
2023-05-17T06:27:03.226Z,3.80
2023-05-17T06:29:31.615Z,2.00
2023-05-17T06:31:59.923Z,3.75
2023-05-17T06:34:29.497Z,2.72
2023-05-17T06:36:57.725Z,2.92
2023-05-17T06:39:25.989Z,5.63
2023-05-17T06:41:54.204Z,4.43
2023-05-17T06:44:22.454Z,1.55
2023-05-17T06:46:50.699Z,2.88
2023-05-17T06:49:18.915Z,3.75
2023-05-17T06:51:49.214Z,3.15
2023-05-17T06:54:19.697Z,2.25
2023-05-17T06:56:47.947Z,2.45
2023-05-17T06:59:16.652Z,4.03
2023-05-17T07:01:44.862Z,2.30
2023-05-17T07:04:13.284Z,4.45
2023-05-17T07:06:44.604Z,2.17
2023-05-17T07:09:14.418Z,1.38
2023-05-17T07:11:42.660Z,1.90
2023-05-17T07:14:10.868Z,3.20
2023-05-17T07:16:39.046Z,1.80
2023-05-17T07:19:07.552Z,2.00
2023-05-17T07:21:35.909Z,1.85
2023-05-17T07:24:04.361Z,2.50
2023-05-17T07:26:33.979Z,2.38
2023-05-17T07:29:02.201Z,4.35
2023-05-17T07:31:30.628Z,2.08
2023-05-17T07:33:58.886Z,2.20
2023-05-17T07:36:30.521Z,2.55
2023-05-17T07:38:58.949Z,2.97
2023-05-17T07:41:27.331Z,3.22
2023-05-17T07:43:56.873Z,1.00
2023-05-17T07:46:25.096Z,1.98
2023-05-17T07:48:55.775Z,4.07
2023-05-17T07:51:25.729Z,1.60
2023-05-17T07:53:53.911Z,1.95
2023-05-17T07:56:22.164Z,2.15
2023-05-17T07:58:50.833Z,5.55
2023-05-17T08:01:20.647Z,3.80
2023-05-17T08:03:48.964Z,2.83
2023-05-17T08:06:17.362Z,3.83
2023-05-17T08:08:46.133Z,3.70
2023-05-17T08:11:15.416Z,2.70
2023-05-17T08:13:44.359Z,2.38
2023-05-17T08:16:14.593Z,1.42
2023-05-17T08:18:44.961Z,4.07
2023-05-17T08:21:13.412Z,3.55
2023-05-17T08:23:42.708Z,3.58
2023-05-17T08:26:12.595Z,3.80
2023-05-17T08:28:40.817Z,2.80
2023-05-17T08:31:08.983Z,3.22
2023-05-17T08:33:37.330Z,1.88
2023-05-17T08:36:08.310Z,2.28
2023-05-17T08:38:37.320Z,2.17
2023-05-17T08:41:05.878Z,4.82
2023-05-17T08:43:34.162Z,2.83
2023-05-17T08:46:04.220Z,3.33
2023-05-17T08:48:33.452Z,2.35
2023-05-17T08:51:01.700Z,2.08
2023-05-17T08:53:31.392Z,4.18
2023-05-17T08:56:01.578Z,3.53
2023-05-17T08:58:44.740Z,2.83
2023-05-17T09:01:25.972Z,1.63
2023-05-17T09:03:55.652Z,3.38
2023-05-17T09:06:25.501Z,2.72
2023-05-17T09:08:56.017Z,3.03
2023-05-17T09:11:28.841Z,1.80
2023-05-17T09:14:01.105Z,1.63
2023-05-17T09:16:30.405Z,2.88
2023-05-17T09:18:59.860Z,2.58
2023-05-17T09:21:29.778Z,3.38
2023-05-17T09:26:42.382Z,2.90
2023-05-17T09:29:11.741Z,2.88
2023-05-17T09:31:40.343Z,1.67
2023-05-17T09:34:09.342Z,1.30
2023-05-17T09:36:39.475Z,1.88
2023-05-17T09:39:13.701Z,3.42
2023-05-17T09:41:45.290Z,1.80
2023-05-17T09:44:15.117Z,1.38
2023-05-17T09:46:45.934Z,3.38
2023-05-17T09:49:14.526Z,3.63
2023-05-17T09:51:44.130Z,4.13
2023-05-17T09:54:14.341Z,1.58
2023-05-17T09:56:43.206Z,3.47
2023-05-17T09:59:16.224Z,2.63
2023-05-17T10:01:46.116Z,2.22
2023-05-17T10:04:20.468Z,1.50
2023-05-17T10:06:52.387Z,3.35
2023-05-17T10:09:24.127Z,2.25
2023-05-17T10:14:28.250Z,5.80
2023-05-17T10:16:57.320Z,1.45
2023-05-17T10:19:27.259Z,1.58
2023-05-17T10:22:00.339Z,4.32
2023-05-17T10:24:38.320Z,2.57
2023-05-17T10:27:08.349Z,3.53
2023-05-17T10:29:39.476Z,1.15
2023-05-17T10:32:09.260Z,3.03
2023-05-17T10:34:38.546Z,2.47
2023-05-17T10:37:07.795Z,1.58
2023-05-17T10:39:39.045Z,1.35
2023-05-17T10:44:41.108Z,3.30
2023-05-17T10:47:09.888Z,1.48
2023-05-17T10:49:41.489Z,2.13
2023-05-17T10:52:14.323Z,2.97
2023-05-17T10:54:45.619Z,3.20
2023-05-17T10:57:22.275Z,2.50
2023-05-17T11:00:01.609Z,3.25
2023-05-17T11:02:32.224Z,4.60
2023-05-17T11:05:02.363Z,2.30
2023-05-17T11:07:33.927Z,3.60
2023-05-17T11:10:12.235Z,2.25
2023-05-17T11:12:42.996Z,2.38
2023-05-17T11:15:12.591Z,2.50
2023-05-17T11:17:52.583Z,3.47
2023-05-17T11:20:35.354Z,1.98
2023-05-17T11:23:05.493Z,2.53
2023-05-17T11:25:36.999Z,1.85
2023-05-17T11:28:10.102Z,3.58
2023-05-17T11:30:43.541Z,3.33
2023-05-17T11:33:21.079Z,2.13
2023-05-17T11:35:57.977Z,7.20
2023-05-17T11:38:30.523Z,3.97
2023-05-17T11:41:26.444Z,4.13
2023-05-17T11:43:56.108Z,2.25
2023-05-17T11:46:25.143Z,1.75
2023-05-17T11:48:54.488Z,1.63
2023-05-17T11:51:25.018Z,2.40
2023-05-17T11:53:56.124Z,3.73
2023-05-17T11:56:41.990Z,6.32
2023-05-17T11:59:11.710Z,2.05
2023-05-17T12:01:47.405Z,2.35
2023-05-17T12:04:16.212Z,3.05
2023-05-17T12:06:46.284Z,1.92
2023-05-17T12:09:17.859Z,4.43
2023-05-17T12:14:17.608Z,1.63
2023-05-17T12:16:48.650Z,3.95
2023-05-17T12:19:20.591Z,2.47
2023-05-17T12:21:49.111Z,3.95
2023-05-17T12:24:17.665Z,2.67
2023-05-17T12:26:48.352Z,2.45
2023-05-17T12:29:22.813Z,5.68
2023-05-17T12:31:53.154Z,2.70
2023-05-17T12:34:21.750Z,2.03
2023-05-17T12:36:50.689Z,3.03
2023-05-17T12:39:23.722Z,2.47
2023-05-17T12:41:53.971Z,2.65
2023-05-17T12:44:22.445Z,3.40
2023-05-17T12:46:54.014Z,3.50
2023-05-17T12:49:23.317Z,2.50
2023-05-17T12:51:51.878Z,2.50
2023-05-17T12:54:30.071Z,3.30
2023-05-17T12:56:59.711Z,2.10
2023-05-17T12:59:29.300Z,3.25
2023-05-17T13:02:00.664Z,3.05
2023-05-17T13:04:33.386Z,1.73
2023-05-17T13:07:03.180Z,1.63
2023-05-17T13:09:32.534Z,3.10
2023-05-17T13:12:06.052Z,3.20
2023-05-17T13:14:35.903Z,3.60
2023-05-17T13:17:04.922Z,2.42
2023-05-17T13:19:33.604Z,2.58
2023-05-17T13:22:01.935Z,6.13
2023-05-17T13:24:32.026Z,4.88
2023-05-17T13:27:01.807Z,2.42
2023-05-17T13:29:38.693Z,4.13
2023-05-17T13:32:09.553Z,1.50
2023-05-17T13:34:38.000Z,1.88
2023-05-17T13:37:09.416Z,2.17
2023-05-17T13:39:39.676Z,4.00
2023-05-17T13:42:09.683Z,3.58
2023-05-17T13:44:38.497Z,1.30
2023-05-17T13:47:07.083Z,2.67
2023-05-17T13:49:35.548Z,6.03
2023-05-17T13:52:04.159Z,2.60
2023-05-17T13:54:32.429Z,4.95
2023-05-17T13:57:00.634Z,7.60
2023-05-17T13:59:30.205Z,4.90
2023-05-17T14:01:58.939Z,3.10
2023-05-17T14:04:27.204Z,3.08
2023-05-17T14:06:55.452Z,2.65
2023-05-17T14:09:23.669Z,1.95
2023-05-17T14:11:51.908Z,2.30
2023-05-17T14:14:20.204Z,3.60
2023-05-17T14:16:49.804Z,3.00
2023-05-17T14:19:18.119Z,3.42
2023-05-17T14:21:46.376Z,3.92
2023-05-17T14:24:14.744Z,3.03
2023-05-17T14:26:43.238Z,2.03
2023-05-17T14:29:11.451Z,2.60
2023-05-17T14:31:39.652Z,5.40
2023-05-17T14:34:09.316Z,2.40
2023-05-17T14:36:38.422Z,1.40
2023-05-17T14:39:06.746Z,3.53
2023-05-17T14:41:35.016Z,2.80
2023-05-17T14:44:03.204Z,2.75
2023-05-17T14:46:31.593Z,2.75
2023-05-17T14:48:59.845Z,2.78
2023-05-17T14:51:29.465Z,4.60
2023-05-17T14:53:58.093Z,2.45
2023-05-17T14:56:26.477Z,2.53
2023-05-17T14:58:54.763Z,3.92
2023-05-17T15:01:23.319Z,7.45
2023-05-17T15:03:51.858Z,4.53
2023-05-17T15:06:24.704Z,1.60
2023-05-17T15:08:54.974Z,2.72
2023-05-17T15:11:23.757Z,3.00
2023-05-17T15:13:51.963Z,4.22
2023-05-17T15:16:21.188Z,2.42
2023-05-17T15:18:49.541Z,1.73
2023-05-17T15:21:19.112Z,2.88
2023-05-17T15:23:50.740Z,2.65
2023-05-17T15:26:20.348Z,1.92
2023-05-17T15:28:49.985Z,3.40
2023-05-17T15:31:21.387Z,2.95
2023-05-17T15:33:49.640Z,2.63
2023-05-17T15:36:18.152Z,3.35
2023-05-17T15:38:46.507Z,5.63
2023-05-17T15:41:16.811Z,3.33
2023-05-17T15:43:46.424Z,2.80
2023-05-17T15:46:14.730Z,1.85
2023-05-17T15:48:43.034Z,4.43
2023-05-17T15:51:11.296Z,2.70
2023-05-17T15:53:39.719Z,3.13
2023-05-17T15:56:10.153Z,4.32
2023-05-17T15:58:38.718Z,3.03
2023-05-17T16:01:08.423Z,3.25
2023-05-17T16:03:36.909Z,1.65
2023-05-17T16:06:05.867Z,4.10
2023-05-17T16:08:34.251Z,3.42
2023-05-17T16:11:02.855Z,1.90
2023-05-17T16:13:31.348Z,2.47
2023-05-17T16:16:00.193Z,4.45
2023-05-17T16:18:31.429Z,4.30
2023-05-17T16:21:00.391Z,3.40
2023-05-17T16:23:28.983Z,4.35
2023-05-17T16:25:57.459Z,2.55
2023-05-17T16:28:25.808Z,3.50
2023-05-17T16:30:54.505Z,2.38
2023-05-17T16:33:23.008Z,2.92
2023-05-17T16:35:52.694Z,3.08
2023-05-17T16:38:21.073Z,2.92
2023-05-17T16:40:49.366Z,3.67
2023-05-17T16:43:17.574Z,1.23
2023-05-17T16:45:46.464Z,6.28
2023-05-17T16:48:15.643Z,2.80
2023-05-17T16:50:44.206Z,1.88
2023-05-17T16:53:13.810Z,4.10
2023-05-17T16:55:42.228Z,1.77
2023-05-17T16:58:10.577Z,3.58
2023-05-17T17:00:38.882Z,1.40
2023-05-17T17:03:09.538Z,5.35
2023-05-17T17:05:38.558Z,3.47
2023-05-17T17:08:06.847Z,2.60
2023-05-17T17:10:36.748Z,3.55
2023-05-17T17:13:05.034Z,2.78
2023-05-17T17:15:33.268Z,2.67
2023-05-17T17:18:01.788Z,3.10
2023-05-17T17:20:30.656Z,2.28
2023-05-17T17:22:59.121Z,2.42
2023-05-17T17:25:28.099Z,2.50
2023-05-17T17:27:57.779Z,2.83
2023-05-17T17:30:26.216Z,1.63
2023-05-17T17:32:54.544Z,2.80
2023-05-17T17:35:23.112Z,2.78
2023-05-17T17:37:53.104Z,2.30
2023-05-17T17:40:21.801Z,2.83
2023-05-17T17:42:50.309Z,1.98
2023-05-17T17:45:19.932Z,2.95
2023-05-17T17:47:48.168Z,3.25
2023-05-17T17:50:16.421Z,4.40
2023-05-17T17:52:45.273Z,1.85
2023-05-17T17:55:13.729Z,2.15
2023-05-17T17:57:41.980Z,4.25
2023-05-17T18:00:12.127Z,2.35
2023-05-17T18:02:41.988Z,4.07
2023-05-17T18:05:11.460Z,2.58
2023-05-17T18:07:39.821Z,3.80
2023-05-17T18:10:09.107Z,3.78
2023-05-17T18:12:37.380Z,5.60
2023-05-17T18:15:06.138Z,3.13
2023-05-17T18:17:34.477Z,2.83
2023-05-17T18:20:04.762Z,3.40
2023-05-17T18:22:33.466Z,2.65
2023-05-17T18:25:01.779Z,2.13
2023-05-17T18:27:30.038Z,3.25
2023-05-17T18:29:58.555Z,4.80
2023-05-17T18:32:26.869Z,4.18
2023-05-17T18:34:55.124Z,2.72
2023-05-17T18:37:24.995Z,2.67
2023-05-17T18:39:54.159Z,3.25
2023-05-17T18:42:24.947Z,3.38
2023-05-17T18:44:53.420Z,2.67
2023-05-17T18:47:23.441Z,2.25
2023-05-17T18:49:52.220Z,3.67
2023-05-17T18:52:20.504Z,3.70
2023-05-17T18:54:50.122Z,3.10
2023-05-17T18:57:18.549Z,2.42
2023-05-17T18:59:46.748Z,2.40
2023-05-17T19:02:14.937Z,4.95
2023-05-17T19:04:43.251Z,3.05
2023-05-17T19:07:11.431Z,3.13
2023-05-17T19:09:39.727Z,2.75
2023-05-17T19:12:11.016Z,3.28
2023-05-17T19:14:40.391Z,3.22
2023-05-17T19:17:10.251Z,3.03
2023-05-17T19:19:38.606Z,3.83
2023-05-17T19:22:06.987Z,4.72
2023-05-17T19:24:35.788Z,4.10
2023-05-17T19:27:04.831Z,4.10
2023-05-17T19:29:34.447Z,6.45
2023-05-17T19:32:02.806Z,4.63
2023-05-17T19:34:31.305Z,3.38
2023-05-17T19:37:00.006Z,3.92
2023-05-17T19:39:28.201Z,2.95
2023-05-17T19:41:56.780Z,3.28
2023-05-17T19:44:24.964Z,3.92
2023-05-17T19:46:54.607Z,2.97
2023-05-17T19:49:22.870Z,3.88
2023-05-17T19:51:54.072Z,3.30
2023-05-17T19:54:22.410Z,3.60
2023-05-17T19:56:50.633Z,4.07
2023-05-17T19:59:18.856Z,4.28
2023-05-17T20:01:47.133Z,4.32
2023-05-17T20:04:16.844Z,3.25
2023-05-17T20:06:45.094Z,3.10
2023-05-17T20:09:13.292Z,4.80
2023-05-17T20:11:41.550Z,4.38
2023-05-17T20:14:12.395Z,3.78
2023-05-17T20:16:40.788Z,6.55
2023-05-17T20:19:09.134Z,5.85
2023-05-17T20:21:38.823Z,5.95
2023-05-17T20:24:07.821Z,5.20
2023-05-17T20:26:37.256Z,7.40
2023-05-17T20:29:07.247Z,5.75
2023-05-17T20:31:36.513Z,6.45
2023-05-17T20:34:05.162Z,8.27
2023-05-17T20:36:33.557Z,7.07
2023-05-17T20:39:03.523Z,4.63
2023-05-17T20:41:31.737Z,5.43
2023-05-17T20:43:59.953Z,6.22
2023-05-17T20:46:29.970Z,7.38
2023-05-17T20:48:58.379Z,8.07
2023-05-17T20:51:27.421Z,7.07
2023-05-17T20:53:55.611Z,7.65
2023-05-17T20:56:25.632Z,6.93
2023-05-17T20:58:53.847Z,5.40
2023-05-17T21:01:22.613Z,5.45
2023-05-17T21:03:51.515Z,8.18
2023-05-17T21:06:19.907Z,6.18
2023-05-17T21:08:48.203Z,7.00
2023-05-17T21:11:20.993Z,7.50
2023-05-17T21:13:51.370Z,6.38
2023-05-17T21:16:19.709Z,7.93
2023-05-17T21:18:48.121Z,5.65
2023-05-17T21:21:16.448Z,6.97
2023-05-17T21:23:44.653Z,4.95
2023-05-17T21:26:12.822Z,5.03
2023-05-17T21:28:41.044Z,6.85
2023-05-17T21:31:10.767Z,8.68
2023-05-17T21:33:39.073Z,8.68
2023-05-17T21:36:07.653Z,4.72
2023-05-17T21:38:35.870Z,5.93
2023-05-17T21:41:04.057Z,8.65
2023-05-17T21:43:32.286Z,6.22
2023-05-17T21:46:00.496Z,8.23
2023-05-17T21:48:30.188Z,6.45
2023-05-17T21:50:58.382Z,5.25
2023-05-17T21:53:26.623Z,8.70
2023-05-17T21:56:02.214Z,7.65
2023-05-17T21:58:32.180Z,9.00
2023-05-17T22:01:00.649Z,11.45
2023-05-17T22:03:30.376Z,7.70
2023-05-17T22:05:58.667Z,6.22
2023-05-17T22:08:26.910Z,6.50
2023-05-17T22:10:55.733Z,6.30
2023-05-17T22:13:26.443Z,7.65
2023-05-17T22:15:57.456Z,5.32
2023-05-17T22:18:26.933Z,6.15
2023-05-17T22:20:59.313Z,6.50
2023-05-17T22:23:27.751Z,5.30
2023-05-17T22:25:57.231Z,8.95
2023-05-17T22:28:25.435Z,8.85
2023-05-17T22:30:55.045Z,5.20
2023-05-17T22:33:23.585Z,7.25
2023-05-17T22:35:53.597Z,7.68
2023-05-17T22:38:24.335Z,5.40
2023-05-17T22:40:52.570Z,5.95
2023-05-17T22:43:22.322Z,6.00
2023-05-17T22:45:51.205Z,6.72
2023-05-17T22:48:21.048Z,7.30
2023-05-17T22:50:50.621Z,7.28
2023-05-17T22:53:19.231Z,10.00
2023-05-17T22:55:48.955Z,6.68
2023-05-17T22:58:17.468Z,6.60
2023-05-17T23:00:45.954Z,7.63
2023-05-17T23:03:14.703Z,8.18
2023-05-17T23:05:43.346Z,6.50
2023-05-17T23:08:12.965Z,6.22
2023-05-17T23:10:41.488Z,9.07
2023-05-17T23:13:11.150Z,6.07
2023-05-17T23:15:40.835Z,6.07
2023-05-17T23:18:09.260Z,5.28
2023-05-17T23:20:37.568Z,4.32
2023-05-17T23:23:08.422Z,6.95
2023-05-17T23:25:37.345Z,5.88
2023-05-17T23:28:05.844Z,7.38
2023-05-17T23:30:38.432Z,5.00
2023-05-17T23:33:06.711Z,7.53
2023-05-17T23:35:35.025Z,5.57
2023-05-17T23:38:04.210Z,4.47
2023-05-17T23:40:32.725Z,5.43
2023-05-17T23:43:00.909Z,5.05
2023-05-17T23:45:29.960Z,6.05
2023-05-17T23:48:00.532Z,4.13
2023-05-17T23:50:28.972Z,7.47
2023-05-17T23:52:57.187Z,4.97
2023-05-17T23:55:25.428Z,4.53
2023-05-17T23:57:53.667Z,6.03
